This is the latest recevied weather packets stored in our database for station/object 9A7DI-13. If no packets are shown the sender has not sent any weather packets the latest 10 day(s).
| Time | Temp. | Humidity | Pressure | Rain* | Wind** | Luminosity | Snow |
|---|---|---|---|---|---|---|---|
| 1777749434 | 15° C | 52% | 1028.5 hPa | - | - | - | - |
| 1777748834 | 14.44° C | 50% | 1028.4 hPa | - | - | - | - |
| 1777747634 | 16.67° C | 45% | 1028.3 hPa | - | - | - | - |
| 1777747034 | 16.67° C | 45% | 1028.3 hPa | - | - | - | - |
| 1777746434 | 16.11° C | 45% | 1028.2 hPa | - | - | - | - |
| 1777745834 | 17.78° C | 44% | 1028 hPa | - | - | - | - |
| 1777745234 | 18.33° C | 41% | 1027.9 hPa | - | - | - | - |
| 1777744634 | 19.44° C | 37% | 1027.9 hPa | - | - | - | - |
| 1777744034 | 20° C | 34% | 1027.8 hPa | - | - | - | - |
| 1777743434 | 20.56° C | 33% | 1027.7 hPa | - | - | - | - |
| 1777742834 | 21.11° C | 31% | 1027.7 hPa | - | - | - | - |
| 1777742234 | 21.11° C | 31% | 1027.8 hPa | - | - | - | - |
| 1777741634 | 21.11° C | 30% | 1027.8 hPa | - | - | - | - |
| 1777741034 | 21.11° C | 31% | 1027.8 hPa | - | - | - | - |
| 1777740434 | 21.67° C | 31% | 1027.9 hPa | - | - | - | - |
| 1777739834 | 21.67° C | 32% | 1028 hPa | - | - | - | - |
| 1777739234 | 22.22° C | 30% | 1028 hPa | - | - | - | - |
| 1777738634 | 22.22° C | 29% | 1028.1 hPa | - | - | - | - |
| 1777738034 | 22.22° C | 29% | 1028.1 hPa | - | - | - | - |
| 1777737434 | 22.22° C | 29% | 1028.3 hPa | - | - | - | - |
| 1777736834 | 22.22° C | 29% | 1028.4 hPa | - | - | - | - |
| 1777736234 | 22.78° C | 28% | 1028.4 hPa | - | - | - | - |
| 1777735034 | 22.78° C | 28% | 1028.7 hPa | - | - | - | - |
| 1777734434 | 22.78° C | 28% | 1028.8 hPa | - | - | - | - |
| 1777733834 | 22.78° C | 28% | 1028.9 hPa | - | - | - | - |
* Rain since midnight (hover to see other rain measurements)
** Current wind speed in m/s (hover to see current wind gust speed)